createdAt,value
2023-02-12T00:01:11.949Z,100125.89
2023-02-12T00:06:15.891Z,100134.34
2023-02-12T00:11:19.743Z,100136.15
2023-02-12T00:16:25.475Z,100143.68
2023-02-12T00:21:27.640Z,100147.73
2023-02-12T00:26:29.494Z,100148.63
2023-02-12T00:31:32.482Z,100150.90
2023-02-12T00:36:34.613Z,100155.27
2023-02-12T00:41:36.322Z,100159.10
2023-02-12T00:46:38.275Z,100151.15
2023-02-12T00:51:40.458Z,100155.15
2023-02-12T00:56:44.118Z,100160.07
2023-02-12T01:01:46.178Z,100165.77
2023-02-12T01:06:48.208Z,100173.79
2023-02-12T01:11:52.134Z,100172.13
2023-02-12T01:16:53.849Z,100171.81
2023-02-12T01:21:55.605Z,100176.70
2023-02-12T01:26:57.344Z,100177.47
2023-02-12T01:31:59.190Z,100176.24
2023-02-12T01:37:01.799Z,100187.13
2023-02-12T01:42:05.164Z,100195.06
2023-02-12T01:47:06.891Z,100200.66
2023-02-12T01:52:13.177Z,100197.15
2023-02-12T01:57:16.611Z,100211.35
2023-02-12T02:02:18.701Z,100205.80
2023-02-12T02:07:20.558Z,100217.98
2023-02-12T02:12:41.422Z,100212.69
2023-02-12T02:18:02.139Z,100218.61
2023-02-12T02:23:21.017Z,100223.24
2023-02-12T02:28:25.672Z,100226.67
2023-02-12T02:33:39.599Z,100232.84
2023-02-12T02:38:57.306Z,100234.56
2023-02-12T02:44:02.440Z,100235.71
2023-02-12T02:49:10.727Z,100250.55
2023-02-12T02:54:42.466Z,100260.37
2023-02-12T02:59:50.345Z,100258.64
2023-02-12T03:05:03.232Z,100262.56
2023-02-12T03:10:13.832Z,100270.80
2023-02-12T03:15:24.338Z,100276.10
2023-02-12T03:20:33.581Z,100287.13
2023-02-12T03:25:40.512Z,100294.80
2023-02-12T03:30:58.327Z,100305.11
2023-02-12T03:36:07.274Z,100326.06
2023-02-12T03:41:18.981Z,100334.09
2023-02-12T03:46:47.175Z,100341.98
2023-02-12T03:51:51.890Z,100357.98
2023-02-12T03:57:04.072Z,100359.20
2023-02-12T04:02:06.976Z,100362.80
2023-02-12T04:07:08.920Z,100369.38
2023-02-12T04:12:25.708Z,100372.02
2023-02-12T04:17:44.366Z,100386.36
2023-02-12T04:22:54.070Z,100392.45
2023-02-12T04:28:13.709Z,100396.90
2023-02-12T04:33:20.957Z,100400.55
2023-02-12T04:38:24.618Z,100406.31
2023-02-12T04:43:28.685Z,100409.20
2023-02-12T04:48:30.388Z,100419.30
2023-02-12T04:53:32.103Z,100425.54
2023-02-12T04:58:33.821Z,100430.10
2023-02-12T05:03:36.136Z,100435.08
2023-02-12T05:08:37.772Z,100447.36
2023-02-12T05:13:39.964Z,100455.76
2023-02-12T05:18:41.651Z,100461.14
2023-02-12T05:23:43.417Z,100464.40
2023-02-12T05:28:45.586Z,100465.76
2023-02-12T05:33:48.653Z,100468.92
2023-02-12T05:38:51.801Z,100484.15
2023-02-12T05:43:53.955Z,100493.46
2023-02-12T05:48:55.645Z,100500.59
2023-02-12T05:54:00.334Z,100502.88
2023-02-12T05:59:08.156Z,100510.95
2023-02-12T06:04:19.228Z,100521.90
2023-02-12T06:09:21.442Z,100526.95
2023-02-12T06:14:23.426Z,100532.54
2023-02-12T06:19:25.176Z,100548.33
2023-02-12T06:24:28.822Z,100558.49
2023-02-12T06:29:30.807Z,100565.30
2023-02-12T06:34:32.435Z,100576.85
2023-02-12T06:39:34.025Z,100584.73
2023-02-12T06:44:35.750Z,100592.28
2023-02-12T06:49:37.386Z,100590.99
2023-02-12T06:54:39.111Z,100595.36
2023-02-12T06:59:40.829Z,100603.06
2023-02-12T07:04:42.693Z,100603.22
2023-02-12T07:09:44.375Z,100609.23
2023-02-12T07:14:46.072Z,100612.86
2023-02-12T07:19:47.765Z,100615.59
2023-02-12T07:24:49.633Z,100613.80
2023-02-12T07:29:53.110Z,100623.69
2023-02-12T07:34:54.720Z,100636.37
2023-02-12T07:39:56.747Z,100646.32
2023-02-12T07:44:58.448Z,100654.30
2023-02-12T07:50:04.409Z,100655.95
2023-02-12T07:55:06.571Z,100662.86
2023-02-12T08:00:11.323Z,100663.41
2023-02-12T08:05:17.954Z,100667.09
2023-02-12T08:10:23.820Z,100669.65
2023-02-12T08:15:26.687Z,100686.06
2023-02-12T08:20:36.402Z,100581.52
2023-02-12T08:25:40.794Z,100693.56
2023-02-12T08:30:45.492Z,100703.64
2023-02-12T08:36:21.310Z,100702.98
2023-02-12T08:41:38.791Z,100711.70
2023-02-12T08:46:48.158Z,100721.84
2023-02-12T08:51:53.995Z,100725.56
2023-02-12T08:57:00.436Z,100728.60
2023-02-12T09:02:04.810Z,100732.63
2023-02-12T09:07:11.729Z,100743.05
2023-02-12T09:12:23.679Z,100745.54
2023-02-12T09:17:27.404Z,100750.73
2023-02-12T09:22:29.000Z,100756.29
2023-02-12T09:27:31.438Z,100767.10
2023-02-12T09:32:33.120Z,100769.91
2023-02-12T09:37:34.791Z,100773.30
2023-02-12T09:43:01.898Z,100782.27
2023-02-12T09:48:28.218Z,100789.23
2023-02-12T09:53:31.380Z,100787.48
2023-02-12T09:58:38.411Z,100790.79
2023-02-12T10:03:40.500Z,100794.27
2023-02-12T10:09:09.683Z,100793.40
2023-02-12T10:14:20.482Z,100799.94
2023-02-12T10:19:50.069Z,100805.34
2023-02-12T10:25:17.957Z,100813.27
2023-02-12T10:30:42.744Z,100810.05
2023-02-12T10:35:50.794Z,100818.91
2023-02-12T10:40:54.805Z,100814.27
2023-02-12T10:45:57.215Z,100817.51
2023-02-12T10:51:08.244Z,100817.36
2023-02-12T10:56:12.819Z,100818.48
2023-02-12T11:01:30.500Z,100816.23
2023-02-12T11:06:32.432Z,100818.73
2023-02-12T11:11:38.749Z,100810.94
2023-02-12T11:16:55.267Z,100810.08
2023-02-12T11:22:18.577Z,100809.66
2023-02-12T11:27:24.187Z,100811.16
2023-02-12T11:32:27.292Z,100808.61
2023-02-12T11:37:29.057Z,100806.43
2023-02-12T11:42:35.282Z,100804.38
2023-02-12T11:47:40.769Z,100803.27
2023-02-12T11:52:42.839Z,100809.48
2023-02-12T11:57:51.046Z,100805.27
2023-02-12T12:02:55.472Z,100796.25
2023-02-12T12:08:03.813Z,100798.15
2023-02-12T12:13:14.700Z,100799.88
2023-02-12T12:18:47.817Z,100791.14
2023-02-12T12:23:59.850Z,100796.50
2023-02-12T12:29:10.720Z,100799.56
2023-02-12T12:34:24.478Z,100804.44
2023-02-12T12:39:48.804Z,100804.13
2023-02-12T12:45:05.202Z,100800.73
2023-02-12T12:50:14.745Z,100805.95
2023-02-12T12:55:35.912Z,100806.57
2023-02-12T13:00:56.449Z,100806.41
2023-02-12T13:06:16.976Z,100806.43
2023-02-12T13:11:46.290Z,100811.63
2023-02-12T13:17:10.567Z,100804.09
2023-02-12T13:22:30.841Z,100803.98
2023-02-12T13:27:40.443Z,100802.34
2023-02-12T13:32:46.583Z,100803.98
2023-02-12T13:37:59.050Z,100795.58
2023-02-12T13:43:55.584Z,100798.92
2023-02-12T13:49:12.404Z,100803.80
2023-02-12T13:54:35.528Z,100805.46
2023-02-12T13:59:37.230Z,100807.42
2023-02-12T14:04:59.804Z,100812.83
2023-02-12T14:10:05.188Z,100822.96
2023-02-12T14:15:11.248Z,100824.50
2023-02-12T14:20:28.415Z,100816.94
2023-02-12T14:25:43.582Z,100816.44
2023-02-12T14:30:45.591Z,100816.07
2023-02-12T14:36:09.108Z,100817.63
2023-02-12T14:41:38.631Z,100791.79
2023-02-12T14:46:46.697Z,100813.55
2023-02-12T14:52:06.955Z,100817.08
2023-02-12T14:57:22.650Z,100825.17
2023-02-12T15:02:27.957Z,100829.53
2023-02-12T15:07:36.942Z,100829.79
2023-02-12T15:13:06.552Z,100833.11
2023-02-12T15:18:10.838Z,100827.04
2023-02-12T15:23:38.538Z,100822.30
2023-02-12T15:28:41.232Z,100831.17
2023-02-12T15:33:47.928Z,100828.34
2023-02-12T15:38:54.447Z,100833.28
2023-02-12T15:43:57.015Z,100832.98
2023-02-12T15:48:59.549Z,100835.23
2023-02-12T15:54:05.894Z,100835.55
2023-02-12T15:59:28.886Z,100835.80
2023-02-12T16:04:34.114Z,100836.37
2023-02-12T16:09:36.640Z,100836.54
2023-02-12T16:14:46.465Z,100839.50
2023-02-12T16:19:56.506Z,100795.29
2023-02-12T16:24:58.740Z,100853.86
2023-02-12T16:30:03.961Z,100853.42
2023-02-12T16:35:12.063Z,100850.48
2023-02-12T16:40:16.425Z,100846.12
2023-02-12T16:45:27.436Z,100858.98
2023-02-12T16:50:34.113Z,100870.02
2023-02-12T16:55:36.779Z,100870.77
2023-02-12T17:00:39.132Z,100872.70
2023-02-12T17:05:44.900Z,100870.91
2023-02-12T17:10:48.271Z,100881.08
2023-02-12T17:15:55.437Z,100886.35
2023-02-12T17:21:04.949Z,100889.70
2023-02-12T17:26:07.743Z,100887.48
2023-02-12T17:31:09.730Z,100892.25
2023-02-12T17:36:12.328Z,100892.17
2023-02-12T17:41:14.093Z,100880.13
2023-02-12T17:46:22.872Z,100880.52
2023-02-12T17:51:25.476Z,100873.21
2023-02-12T17:56:27.460Z,100846.77
2023-02-12T18:01:29.409Z,100873.13
2023-02-12T18:06:31.828Z,100872.66
2023-02-12T18:11:34.010Z,100870.89
2023-02-12T18:16:35.748Z,100867.63
2023-02-12T18:21:40.819Z,100861.45
2023-02-12T18:26:42.573Z,100865.47
2023-02-12T18:31:45.750Z,100863.94
2023-02-12T18:36:47.533Z,100868.02
2023-02-12T18:41:49.302Z,100863.55
2023-02-12T18:46:51.499Z,100861.20
2023-02-12T18:51:53.555Z,100855.90
2023-02-12T18:56:56.254Z,100845.90
2023-02-12T19:01:58.220Z,100843.83
2023-02-12T19:07:00.206Z,100848.15
2023-02-12T19:12:03.298Z,100851.62
2023-02-12T19:17:05.098Z,100858.67
2023-02-12T19:22:06.770Z,100858.17
2023-02-12T19:27:09.832Z,100859.50
2023-02-12T19:32:11.522Z,100867.08
2023-02-12T19:37:13.824Z,100867.79
2023-02-12T19:42:17.261Z,100868.78
2023-02-12T19:47:18.886Z,100869.67
2023-02-12T19:52:20.552Z,100875.02
2023-02-12T19:57:22.365Z,100871.10
2023-02-12T20:02:25.194Z,100870.18
2023-02-12T20:07:26.842Z,100873.13
2023-02-12T20:12:28.719Z,100871.70
2023-02-12T20:17:30.484Z,100864.86
2023-02-12T20:22:32.248Z,100864.05
2023-02-12T20:27:34.098Z,100868.05
2023-02-12T20:32:35.953Z,100870.61
2023-02-12T20:37:37.811Z,100875.02
2023-02-12T20:42:39.560Z,100869.13
2023-02-12T20:47:42.856Z,100872.80
2023-02-12T20:52:44.578Z,100872.58
2023-02-12T20:57:46.450Z,100873.14
2023-02-12T21:02:48.116Z,100873.64
2023-02-12T21:07:50.481Z,100876.55
2023-02-12T21:12:52.247Z,100877.42
2023-02-12T21:17:53.908Z,100883.39
2023-02-12T21:22:55.606Z,100889.54
2023-02-12T21:27:57.265Z,100895.00
2023-02-12T21:32:59.365Z,100892.40
2023-02-12T21:38:01.003Z,100889.88
2023-02-12T21:43:02.783Z,100882.02
2023-02-12T21:48:04.629Z,100882.10
2023-02-12T21:53:06.307Z,100885.14
2023-02-12T21:58:08.388Z,100878.80
2023-02-12T22:03:10.014Z,100878.44
2023-02-12T22:08:11.976Z,100878.13
2023-02-12T22:13:18.970Z,100876.70
2023-02-12T22:18:20.692Z,100874.74
2023-02-12T22:23:22.513Z,100871.70
2023-02-12T22:28:24.490Z,100840.08
2023-02-12T22:33:26.282Z,100871.50
2023-02-12T22:38:27.953Z,100869.55
2023-02-12T22:43:31.082Z,100860.85
2023-02-12T22:48:32.788Z,100859.84
2023-02-12T22:53:34.738Z,100860.73
2023-02-12T22:58:38.613Z,100865.38
2023-02-12T23:03:41.487Z,100873.42
2023-02-12T23:08:44.258Z,100876.02
2023-02-12T23:13:46.583Z,100876.20
2023-02-12T23:18:48.836Z,100872.17
2023-02-12T23:23:50.607Z,100869.05
2023-02-12T23:28:52.224Z,100867.58
2023-02-12T23:33:53.900Z,100859.30
2023-02-12T23:38:59.222Z,100855.08
2023-02-12T23:44:00.858Z,100854.64
2023-02-12T23:49:02.803Z,100848.55
2023-02-12T23:54:04.546Z,100851.54
2023-02-12T23:59:06.449Z,100850.36
